Time;durP1;ratioP1;P1;durP2;ratioP2;P2;SDS_P1;SDS_P2;PMS_P1;PMS_P2;Temp;Humidity;BMP_temperature;BMP_pressure;BME280_temperature;BME280_humidity;BME280_pressure;Samples;Min_cycle;Max_cycle;Signal;HPM_P1;HPM_P2
2023/09/18 04:17:52;;;;;;;8.43;3.33;;;;;;;18.54;100.00;99471.59;5069293;28;20383;-67
2023/09/18 04:20:18;;;;;;;8.93;2.78;;;;;;;18.51;100.00;99451.31;5068060;28;20039;-69
2023/09/18 04:22:49;;;;;;;10.30;4.00;;;;;;;18.52;100.00;99436.81;5067664;28;20047;-69
2023/09/18 04:25:15;;;;;;;9.57;3.78;;;;;;;18.54;100.00;99423.06;5067820;28;20047;-68
2023/09/18 04:27:40;;;;;;;8.07;3.80;;;;;;;18.50;100.00;99417.34;5067711;28;20029;-68
2023/09/18 04:30:09;;;;;;;8.25;3.55;;;;;;;18.50;100.00;99425.44;5067776;28;20410;-67
2023/09/18 04:32:36;;;;;;;6.93;2.80;;;;;;;18.48;100.00;99419.47;5067522;28;20534;-68
2023/09/18 04:35:02;;;;;;;;;;;;;;;18.57;100.00;99415.28;5068147;28;20124;-69
2023/09/18 04:37:28;;;;;;;13.57;2.83;;;;;;;18.59;100.00;99407.78;5067530;28;19948;-69
2023/09/18 04:39:53;;;;;;;7.00;2.92;;;;;;;18.58;100.00;99406.16;5067495;28;20076;-68
2023/09/18 04:42:19;;;;;;;5.95;2.47;;;;;;;18.60;100.00;99406.72;5067202;28;20120;-68
2023/09/18 04:44:44;;;;;;;8.25;2.70;;;;;;;18.64;100.00;99397.06;5067552;28;20036;-69
2023/09/18 04:47:10;;;;;;;6.85;2.42;;;;;;;18.63;100.00;99381.94;5067450;28;20029;-68
2023/09/18 04:49:36;;;;;;;8.15;2.88;;;;;;;18.59;100.00;99383.53;5067441;28;20127;-70
2023/09/18 04:52:02;;;;;;;6.32;2.67;;;;;;;18.60;100.00;99400.53;5067284;28;20119;-69
2023/09/18 04:54:27;;;;;;;5.10;2.85;;;;;;;18.59;100.00;99405.09;5068549;28;20089;-68
2023/09/18 04:56:54;;;;;;;9.18;2.75;;;;;;;18.59;100.00;99420.47;5067143;28;20425;-67
2023/09/18 04:59:19;;;;;;;7.18;3.38;;;;;;;18.57;100.00;99418.00;5067253;28;20048;-68
2023/09/18 05:01:45;;;;;;;9.05;6.03;;;;;;;18.55;100.00;99420.13;5067072;28;20033;-68
2023/09/18 05:04:11;;;;;;;11.00;4.50;;;;;;;18.58;100.00;99421.50;5066898;28;20040;-68
2023/09/18 05:06:38;;;;;;;14.07;8.77;;;;;;;18.59;100.00;99421.28;5067059;28;20102;-68
2023/09/18 05:09:04;;;;;;;11.60;5.55;;;;;;;18.58;100.00;99419.66;5068326;28;20399;-68
2023/09/18 05:11:30;;;;;;;8.80;3.30;;;;;;;18.57;100.00;99418.00;5068130;28;20037;-68
2023/09/18 05:13:55;;;;;;;8.85;3.30;;;;;;;18.58;100.00;99422.34;5067900;28;20036;-68
2023/09/18 05:16:20;;;;;;;9.85;3.50;;;;;;;18.57;100.00;99422.56;5067915;28;20440;-68
2023/09/18 05:18:46;;;;;;;8.65;3.05;;;;;;;18.58;100.00;99430.44;5068099;28;20043;-68
2023/09/18 05:21:11;;;;;;;6.82;3.22;;;;;;;18.58;100.00;99432.28;5068069;28;20127;-68
2023/09/18 05:23:36;;;;;;;7.93;3.22;;;;;;;18.60;100.00;99439.09;5067621;28;20033;-69
2023/09/18 05:26:03;;;;;;;4.38;3.00;;;;;;;18.62;100.00;99433.44;5067778;28;20399;-69
2023/09/18 05:28:28;;;;;;;6.10;2.63;;;;;;;18.63;100.00;99448.56;5058876;28;20032;-68
2023/09/18 05:30:54;;;;;;;8.02;2.90;;;;;;;18.65;100.00;99457.25;5054678;28;20849;-68
2023/09/18 05:33:20;;;;;;;8.18;3.20;;;;;;;18.65;100.00;99458.06;5054383;28;20039;-68
2023/09/18 05:35:45;;;;;;;6.05;3.40;;;;;;;18.63;100.00;99456.66;5054377;28;20133;-68
2023/09/18 05:38:13;;;;;;;11.85;3.58;;;;;;;18.63;100.00;99462.84;5054570;28;20037;-68
2023/09/18 05:40:38;;;;;;;10.45;3.90;;;;;;;18.63;100.00;99459.34;5054393;28;20120;-68
2023/09/18 05:43:04;;;;;;;8.23;3.58;;;;;;;18.62;100.00;99469.31;5054290;28;20506;-68
2023/09/18 05:45:31;;;;;;;7.47;3.00;;;;;;;18.62;100.00;99468.50;5054343;28;20048;-68
2023/09/18 05:48:05;;;;;;;7.78;2.88;;;;;;;18.63;100.00;99478.22;5054307;28;20095;-69
2023/09/18 05:50:32;;;;;;;11.25;4.57;;;;;;;18.64;100.00;99472.59;5054357;28;20040;-68
2023/09/18 05:53:00;;;;;;;9.07;3.95;;;;;;;18.65;100.00;99470.72;5053935;28;20049;-68
2023/09/18 05:55:26;;;;;;;10.52;3.10;;;;;;;18.65;100.00;99484.22;5054041;28;20145;-67
2023/09/18 05:57:52;;;;;;;6.35;3.03;;;;;;;18.64;100.00;99487.94;5054253;28;20044;-68
2023/09/18 06:00:18;;;;;;;4.63;2.45;;;;;;;18.61;100.00;99502.75;5054077;28;20040;-67
2023/09/18 06:02:45;;;;;;;4.30;2.67;;;;;;;18.63;100.00;99508.72;5053751;28;20064;-67
2023/09/18 06:05:15;;;;;;;5.82;3.00;;;;;;;18.60;100.00;99513.78;5053953;28;20037;-68
2023/09/18 06:07:41;;;;;;;5.45;3.00;;;;;;;18.60;100.00;99514.59;5054096;28;20123;-69
2023/09/18 06:10:07;;;;;;;7.80;3.28;;;;;;;18.61;100.00;99518.94;5053976;28;20064;-68
2023/09/18 06:12:33;;;;;;;10.25;2.97;;;;;;;18.65;100.00;99532.75;5053755;28;20060;-68
2023/09/18 06:14:58;;;;;;;6.97;3.15;;;;;;;18.66;100.00;99529.84;5053769;28;20102;-68
2023/09/18 06:17:24;;;;;;;7.47;3.30;;;;;;;18.68;100.00;99533.13;5053629;28;20384;-67
2023/09/18 06:19:49;;;;;;;8.48;3.17;;;;;;;18.69;100.00;99528.53;5053797;28;20484;-68
2023/09/18 06:22:15;;;;;;;7.53;2.70;;;;;;;18.69;100.00;99526.66;5053377;28;20044;-68
2023/09/18 06:24:41;;;;;;;8.55;3.65;;;;;;;18.69;100.00;99520.44;5053543;28;20048;-68
2023/09/18 06:27:06;;;;;;;6.57;3.28;;;;;;;18.69;100.00;99520.44;5053564;28;20025;-67
2023/09/18 06:29:32;;;;;;;9.85;3.20;;;;;;;18.70;100.00;99525.59;5053542;28;20120;-69
2023/09/18 06:31:58;;;;;;;8.95;3.67;;;;;;;18.73;100.00;99536.97;5053478;28;20561;-68
2023/09/18 06:34:24;;;;;;;7.43;3.50;;;;;;;18.77;100.00;99541.63;5053207;28;20041;-68
2023/09/18 06:36:50;;;;;;;6.15;3.38;;;;;;;18.75;100.00;99551.03;5053335;28;20133;-68
2023/09/18 06:39:16;;;;;;;5.30;3.00;;;;;;;18.77;100.00;99547.00;5052532;28;20087;-65
2023/09/18 06:41:41;;;;;;;8.77;3.10;;;;;;;18.77;100.00;99541.63;5053407;28;20411;-49
2023/09/18 06:44:09;;;;;;;7.53;3.13;;;;;;;18.80;100.00;99559.22;5051862;28;20043;-48
2023/09/18 06:46:34;;;;;;;9.75;2.95;;;;;;;18.78;100.00;99562.16;5053241;28;20399;-49
2023/09/18 06:49:00;;;;;;;9.10;3.00;;;;;;;18.79;100.00;99573.75;5053223;28;20052;-48
2023/09/18 06:51:29;;;;;;;8.07;3.17;;;;;;;18.75;100.00;99572.59;5053194;28;20112;-49
2023/09/18 06:53:57;;;;;;;8.20;3.70;;;;;;;18.80;100.00;99586.19;5052812;28;20138;-50
2023/09/18 06:56:23;;;;;;;;;;;;;;;18.83;100.00;99591.91;5053391;28;20033;-48
2023/09/18 06:58:51;;;;;;;7.35;3.20;;;;;;;18.85;100.00;99595.19;5053112;28;20008;-55
2023/09/18 07:01:18;;;;;;;7.60;2.72;;;;;;;18.89;100.00;99595.50;5052947;28;20041;-57
2023/09/18 07:03:44;;;;;;;5.85;2.55;;;;;;;18.90;100.00;99594.44;5052691;28;20407;-59
2023/09/18 07:06:10;;;;;;;6.75;2.72;;;;;;;18.89;100.00;99590.13;5052814;28;20037;-60
2023/09/18 07:08:36;;;;;;;6.65;2.70;;;;;;;18.89;100.00;99595.50;5052720;28;20479;-59
2023/09/18 07:11:01;;;;;;;7.97;2.33;;;;;;;18.93;100.00;99599.38;5052760;28;20044;-61
2023/09/18 07:13:26;;;;;;;5.50;2.58;;;;;;;18.97;100.00;99592.41;5052530;28;20088;-56
2023/09/18 07:15:52;;;;;;;4.68;2.67;;;;;;;19.01;100.00;99593.56;5052466;28;20547;-59
2023/09/18 07:18:17;;;;;;;6.03;2.20;;;;;;;19.05;100.00;99597.44;5052673;28;20135;-59
2023/09/18 07:20:46;;;;;;;5.00;2.22;;;;;;;19.11;100.00;99601.84;5052712;28;20040;-59
2023/09/18 07:23:11;;;;;;;4.18;2.13;;;;;;;19.13;100.00;99598.91;5052220;28;20041;-59
2023/09/18 07:25:40;;;;;;;3.70;2.00;;;;;;;19.18;100.00;99612.50;5052406;28;20048;-60
2023/09/18 07:28:06;;;;;;;8.88;2.47;;;;;;;19.20;100.00;99615.75;5052369;28;20037;-56
2023/09/18 07:30:33;;;;;;;4.22;2.10;;;;;;;19.19;100.00;99601.44;5052402;28;20055;-59
2023/09/18 07:32:58;;;;;;;5.68;1.80;;;;;;;19.23;100.00;99612.53;5052426;28;20381;-55
2023/09/18 07:35:25;;;;;;;5.55;1.92;;;;;;;19.25;100.00;99605.03;5052244;28;20133;-55
2023/09/18 07:37:50;;;;;;;8.23;2.42;;;;;;;19.27;100.00;99612.88;5052279;28;20423;-56
2023/09/18 07:40:16;;;;;;;6.63;1.92;;;;;;;19.27;100.00;99608.31;5052281;28;20036;-59
2023/09/18 07:42:43;;;;;;;5.03;1.70;;;;;;;19.29;100.00;99614.28;5051960;28;20048;-58
2023/09/18 07:45:12;;;;;;;3.35;1.65;;;;;;;19.29;100.00;99619.66;5052098;28;20182;-59
2023/09/18 07:47:38;;;;;;;4.75;1.52;;;;;;;19.29;100.00;99618.84;5052131;28;20029;-59
2023/09/18 07:50:04;;;;;;;3.83;1.67;;;;;;;19.33;100.00;99611.91;5052028;28;20506;-59
2023/09/18 07:52:31;;;;;;;6.75;2.03;;;;;;;19.33;100.00;99609.22;5051756;28;20032;-57
2023/09/18 07:54:58;;;;;;;2.38;1.27;;;;;;;19.36;100.00;99614.09;5052083;28;20049;-58
2023/09/18 07:57:23;;;;;;;6.43;1.60;;;;;;;19.38;100.00;99609.28;5051883;28;20033;-55
2023/09/18 07:59:49;;;;;;;4.43;2.10;;;;;;;19.37;100.00;99621.16;5052007;28;20044;-59
2023/09/18 08:02:15;;;;;;;6.95;2.40;;;;;;;19.37;100.00;99624.69;5051820;28;20045;-58
2023/09/18 08:04:40;;;;;;;4.15;1.15;;;;;;;19.41;100.00;99616.88;5051795;28;20506;-59
2023/09/18 08:07:06;;;;;;;4.53;1.80;;;;;;;19.43;100.00;99617.44;5050701;28;20037;-58
2023/09/18 08:09:36;;;;;;;4.20;1.50;;;;;;;19.36;100.00;99614.91;5051786;28;20127;-58
2023/09/18 08:12:02;;;;;;;5.15;1.52;;;;;;;19.34;100.00;99614.34;5051688;28;20028;-55
2023/09/18 08:14:27;;;;;;;2.92;1.55;;;;;;;19.30;100.00;99596.19;5051628;28;20060;-58
2023/09/18 08:16:57;;;;;;;5.28;1.50;;;;;;;19.29;100.00;99578.34;5051570;28;20083;-58
2023/09/18 08:19:23;;;;;;;1.50;1.10;;;;;;;19.28;100.00;99577.53;5051775;28;20400;-57
2023/09/18 08:21:49;;;;;;;2.75;1.08;;;;;;;19.28;100.00;99568.63;5051680;28;20041;-60
2023/09/18 08:24:14;;;;;;;3.40;1.02;;;;;;;19.29;100.00;99557.56;5051473;28;20040;-59
2023/09/18 08:26:39;;;;;;;1.85;1.25;;;;;;;19.27;100.00;99559.72;5051734;28;20074;-57
2023/09/18 08:29:05;;;;;;;4.78;0.98;;;;;;;19.28;100.00;99574.84;5051713;28;20052;-59
2023/09/18 08:31:31;;;;;;;1.20;0.85;;;;;;;19.30;100.00;99574.59;5051705;28;20052;-59
2023/09/18 08:33:57;;;;;;;2.38;0.90;;;;;;;19.25;100.00;99554.56;5051535;28;20037;-59
2023/09/18 08:36:23;;;;;;;3.47;1.00;;;;;;;19.29;100.00;99554.88;5051504;28;20083;-56
2023/09/18 08:38:48;;;;;;;2.00;1.05;;;;;;;19.28;100.00;99565.91;5051719;28;20527;-58
2023/09/18 08:41:17;;;;;;;2.67;0.95;;;;;;;19.27;100.00;99583.19;5051609;28;20036;-57
2023/09/18 08:43:44;;;;;;;2.65;1.17;;;;;;;19.24;100.00;99585.31;5051448;28;20049;-55
2023/09/18 08:46:09;;;;;;;6.63;1.27;;;;;;;19.24;100.00;99579.94;5051429;28;20043;-56
2023/09/18 08:48:36;;;;;;;3.65;1.40;;;;;;;19.30;100.00;99577.28;5051672;28;20120;-59
2023/09/18 08:51:06;;;;;;;3.65;1.10;;;;;;;19.32;100.00;99572.47;5051471;28;20041;-58
2023/09/18 08:53:33;;;;;;;4.78;1.20;;;;;;;19.36;100.00;99570.91;5051218;28;20500;-55
2023/09/18 08:56:01;;;;;;;2.97;0.82;;;;;;;19.41;100.00;99587.19;5051279;28;20025;-58
2023/09/18 08:58:30;;;;;;;4.20;1.27;;;;;;;19.43;100.00;99585.91;5051418;28;20041;-58
2023/09/18 09:00:57;;;;;;;2.15;1.00;;;;;;;19.48;100.00;99595.94;5051471;28;20119;-55
2023/09/18 09:03:23;;;;;;;12.23;1.88;;;;;;;19.55;100.00;99601.16;5051693;28;20044;-60
2023/09/18 09:05:48;;;;;;;4.68;1.05;;;;;;;19.54;100.00;99613.84;5055000;28;20407;-59
2023/09/18 09:08:14;;;;;;;3.90;1.35;;;;;;;19.57;100.00;99621.47;5055145;28;20404;-60
2023/09/18 09:10:40;;;;;;;1.85;1.13;;;;;;;19.59;100.00;99626.66;5055155;28;20095;-57
2023/09/18 09:13:05;;;;;;;3.45;1.00;;;;;;;19.62;100.00;99632.38;5054764;28;20112;-60
2023/09/18 09:15:47;;;;;;;1.42;0.93;;;;;;;19.66;100.00;99630.81;5054959;28;20037;-58
2023/09/18 09:18:16;;;;;;;3.90;1.10;;;;;;;19.68;100.00;99641.38;5055015;28;20037;-59
2023/09/18 09:20:54;;;;;;;3.03;1.20;;;;;;;19.69;100.00;99641.16;5054816;28;20100;-54
2023/09/18 09:23:19;;;;;;;3.47;1.20;;;;;;;19.75;100.00;99640.13;5054704;28;20044;-57
2023/09/18 09:25:45;;;;;;;6.07;1.10;;;;;;;19.74;100.00;99643.91;5054733;28;20040;-59
2023/09/18 09:28:10;;;;;;;2.08;0.90;;;;;;;19.85;100.00;99649.47;5054746;28;20037;-56
2023/09/18 09:30:36;;;;;;;2.20;1.10;;;;;;;19.83;100.00;99636.22;5054715;28;20055;-55
2023/09/18 09:33:04;;;;;;;4.43;1.30;;;;;;;19.87;100.00;99631.13;5054462;28;20035;-58
2023/09/18 09:35:31;;;;;;;3.08;1.02;;;;;;;19.95;100.00;99622.56;5054527;28;20035;-57
2023/09/18 09:38:01;;;;;;;1.75;1.05;;;;;;;19.94;100.00;99623.63;5054457;28;20044;-56
2023/09/18 09:40:29;;;;;;;3.47;1.00;;;;;;;20.00;100.00;99609.13;5054488;28;20247;-59
2023/09/18 09:43:02;;;;;;;1.67;0.98;;;;;;;20.04;100.00;99602.97;5054364;28;20032;-60
2023/09/18 09:45:29;;;;;;;1.75;0.75;;;;;;;20.13;100.00;99619.56;5054423;28;20480;-58
2023/09/18 09:47:57;;;;;;;2.40;0.80;;;;;;;20.18;100.00;99621.53;5054455;28;20060;-59
2023/09/18 09:50:25;;;;;;;2.78;0.80;;;;;;;20.13;100.00;99618.75;5054316;28;20095;-59
2023/09/18 09:52:53;;;;;;;2.00;0.90;;;;;;;20.20;100.00;99613.97;5054165;28;20033;-59
2023/09/18 09:55:24;;;;;;;4.97;1.10;;;;;;;20.23;100.00;99617.00;5054230;28;20529;-58
2023/09/18 09:58:00;;;;;;;2.72;0.93;;;;;;;20.32;98.23;99617.38;5054170;28;20029;-58
2023/09/18 10:00:49;;;;;;;2.17;0.90;;;;;;;20.34;97.91;99615.22;5054251;28;20496;-59
2023/09/18 10:03:19;;;;;;;1.42;0.80;;;;;;;20.39;97.38;99618.00;5053835;28;20037;-58
2023/09/18 10:05:47;;;;;;;2.20;1.08;;;;;;;20.42;97.55;99616.69;5053982;28;20084;-57
2023/09/18 10:08:17;;;;;;;2.53;0.90;;;;;;;20.42;96.70;99622.91;5054162;28;20037;-60
2023/09/18 10:10:53;;;;;;;2.03;0.93;;;;;;;20.44;96.17;99623.47;5053948;28;20037;-57
2023/09/18 10:13:46;;;;;;;2.78;1.10;;;;;;;20.48;94.79;99623.84;5053818;28;20124;-56
2023/09/18 10:16:14;;;;;;;2.45;0.82;;;;;;;20.50;95.50;99636.03;5053626;28;20099;-57
2023/09/18 10:18:57;;;;;;;;;;;;;;;20.61;92.14;99642.38;5054378;28;20076;-59
2023/09/18 10:21:35;;;;;;;2.38;0.80;;;;;;;20.62;92.99;99619.66;5053906;28;19923;-58
2023/09/18 10:24:22;;;;;;;2.30;0.80;;;;;;;20.66;90.48;99634.28;5053883;28;20438;-56
2023/09/18 10:26:59;;;;;;;2.35;0.90;;;;;;;20.79;88.04;99628.47;5053666;28;20044;-58
2023/09/18 10:29:25;;;;;;;1.27;0.70;;;;;;;20.85;87.99;99630.16;5053712;28;20503;-59
2023/09/18 10:31:53;;;;;;;2.72;1.00;;;;;;;20.90;87.53;99626.72;5053650;28;20040;-56
2023/09/18 10:34:19;;;;;;;2.08;0.98;;;;;;;20.98;87.52;99625.41;5053352;28;20120;-58
2023/09/18 10:36:48;;;;;;;2.33;0.77;;;;;;;21.06;86.55;99623.09;5053277;28;20040;-56
2023/09/18 10:39:19;;;;;;;1.85;0.73;;;;;;;21.06;86.49;99619.53;5053505;28;20500;-59
2023/09/18 10:41:47;;;;;;;3.60;1.00;;;;;;;21.08;86.45;99612.81;5053318;28;20040;-59
2023/09/18 10:44:14;;;;;;;1.17;0.70;;;;;;;21.14;85.47;99622.59;5053209;28;20570;-56
2023/09/18 10:46:39;;;;;;;2.05;0.70;;;;;;;21.17;84.87;99613.16;5053362;28;20484;-57
2023/09/18 10:49:05;;;;;;;1.80;0.73;;;;;;;21.17;85.31;99601.50;5053073;28;20037;-58
2023/09/18 10:51:33;;;;;;;2.58;0.80;;;;;;;21.22;85.07;99615.91;5053170;28;20064;-59
2023/09/18 10:53:59;;;;;;;2.83;0.80;;;;;;;21.27;84.36;99610.53;5052907;28;20037;-59
2023/09/18 10:56:26;;;;;;;1.52;0.60;;;;;;;21.29;84.15;99605.69;5052923;28;20047;-59
2023/09/18 10:59:03;;;;;;;2.63;0.70;;;;;;;21.36;83.33;99619.00;5052964;28;20098;-60
2023/09/18 11:01:30;;;;;;;4.65;1.05;;;;;;;21.39;83.18;99622.03;5052802;28;20475;-58
2023/09/18 11:04:01;;;;;;;1.60;0.80;;;;;;;21.46;83.40;99637.25;5052655;28;20037;-59
2023/09/18 11:06:27;;;;;;;2.40;0.65;;;;;;;21.48;83.60;99622.38;5052727;28;20041;-59
2023/09/18 11:09:07;;;;;;;1.90;0.70;;;;;;;21.54;82.44;99623.22;5052848;28;20036;-59
2023/09/18 11:11:35;;;;;;;1.80;0.85;;;;;;;21.56;82.71;99632.72;5052889;28;20049;-60
2023/09/18 11:14:03;;;;;;;2.30;0.77;;;;;;;21.60;81.68;99622.19;5052508;28;20091;-58
2023/09/18 11:16:28;;;;;;;1.65;0.65;;;;;;;21.63;80.69;99618.94;5052366;28;20488;-59
2023/09/18 11:19:00;;;;;;;1.90;0.77;;;;;;;21.72;80.89;99625.53;5052589;28;20098;-60
2023/09/18 11:21:30;;;;;;;1.42;0.80;;;;;;;21.73;80.38;99631.75;5052381;28;20044;-59
2023/09/18 11:23:59;;;;;;;1.90;0.90;;;;;;;21.81;81.32;99645.63;5052388;28;20110;-59
2023/09/18 11:26:33;;;;;;;2.40;0.63;;;;;;;21.92;78.97;99647.34;5051833;28;20033;-57
2023/09/18 11:29:05;;;;;;;1.45;0.77;;;;;;;21.99;78.36;99646.28;5052552;28;20049;-59
2023/09/18 11:31:49;;;;;;;1.60;0.68;;;;;;;22.10;78.35;99647.97;5052389;28;20033;-62
2023/09/18 11:34:20;;;;;;;1.85;0.90;;;;;;;22.19;76.94;99646.41;5052110;28;20243;-62
2023/09/18 11:36:46;;;;;;;1.00;0.68;;;;;;;22.43;75.34;99654.91;5052225;28;20399;-61
2023/09/18 11:39:12;;;;;;;1.58;0.65;;;;;;;22.64;72.12;99642.25;5052546;28;20021;-61
2023/09/18 11:41:39;;;;;;;4.10;1.05;;;;;;;22.83;71.16;99645.28;5052232;28;20115;-62
2023/09/18 11:44:10;;;;;;;1.00;0.55;;;;;;;22.86;70.12;99642.88;5051970;28;20051;-62
2023/09/18 11:46:39;;;;;;;1.13;0.70;;;;;;;22.87;69.86;99643.69;5051839;28;20029;-62
2023/09/18 11:49:07;;;;;;;2.88;0.85;;;;;;;22.82;69.33;99644.47;5052256;28;20033;-62
2023/09/18 11:51:32;;;;;;;1.38;0.75;;;;;;;22.75;67.33;99646.59;5050992;28;20041;-62
2023/09/18 11:53:59;;;;;;;3.40;1.05;;;;;;;22.72;68.46;99655.31;5051809;28;20056;-61
2023/09/18 11:56:24;;;;;;;2.22;0.73;;;;;;;22.78;69.35;99635.22;5051916;28;20037;-62
2023/09/18 11:58:51;;;;;;;2.33;0.77;;;;;;;22.78;68.64;99627.09;5052114;28;20048;-61
2023/09/18 12:01:22;;;;;;;1.48;0.55;;;;;;;22.82;67.72;99636.34;5051914;28;20500;-62
2023/09/18 12:03:54;;;;;;;4.00;0.65;;;;;;;22.80;68.10;99634.94;5051816;28;20033;-61
2023/09/18 12:06:19;;;;;;;2.47;0.70;;;;;;;22.80;66.87;99632.25;5051887;28;20028;-62
2023/09/18 12:08:46;;;;;;;0.90;0.70;;;;;;;22.85;67.34;99643.94;5051985;28;20056;-60
2023/09/18 12:11:16;;;;;;;3.67;0.90;;;;;;;22.86;66.79;99628.44;5051992;28;20037;-62
2023/09/18 12:13:43;;;;;;;3.20;0.90;;;;;;;22.93;65.98;99629.84;5051691;28;20041;-62
2023/09/18 12:16:09;;;;;;;1.05;0.70;;;;;;;22.93;66.66;99629.03;5051577;28;20163;-61
2023/09/18 12:18:37;;;;;;;0.95;0.68;;;;;;;22.95;66.27;99627.69;5051067;28;20095;-62
2023/09/18 12:21:06;;;;;;;1.23;0.52;;;;;;;22.94;65.52;99628.75;5050368;28;20037;-61
2023/09/18 12:23:39;;;;;;;0.90;0.60;;;;;;;22.91;65.81;99626.59;5033612;28;20112;-60
2023/09/18 12:26:09;;;;;;;1.77;0.70;;;;;;;22.96;65.54;99623.91;5051330;28;20082;-57
2023/09/18 12:28:37;;;;;;;1.92;0.73;;;;;;;22.93;64.92;99623.59;5047426;28;20911;-59
2023/09/18 12:31:06;;;;;;;1.88;0.90;;;;;;;22.89;66.21;99628.78;5050116;28;20029;-58
2023/09/18 12:33:36;;;;;;;3.75;0.77;;;;;;;22.93;66.63;99635.28;5050848;28;20032;-61
2023/09/18 12:36:03;;;;;;;0.85;0.60;;;;;;;23.01;67.05;99629.31;5051135;28;20430;-59
2023/09/18 12:38:30;;;;;;;3.05;0.73;;;;;;;23.16;64.89;99633.97;5053190;28;20041;-58
2023/09/18 12:40:56;;;;;;;0.65;0.60;;;;;;;23.17;66.36;99638.31;5052790;28;20043;-62
2023/09/18 12:43:23;;;;;;;2.55;0.90;;;;;;;23.29;64.89;99638.03;5054652;28;20411;-58
2023/09/18 12:45:51;;;;;;;1.40;1.20;;;;;;;23.43;63.68;99630.16;5054857;28;20588;-59
2023/09/18 12:48:16;;;;;;;1.55;0.70;;;;;;;23.56;61.32;99621.44;5021329;28;20111;-61
2023/09/18 12:50:42;;;;;;;1.65;0.60;;;;;;;23.60;62.88;99627.13;5055214;28;20434;-57
2023/09/18 12:53:13;;;;;;;0.90;0.60;;;;;;;23.52;62.18;99620.34;5034532;28;20039;-60
2023/09/18 12:55:40;;;;;;;2.05;0.63;;;;;;;23.54;63.65;99623.63;5054934;28;20040;-59
2023/09/18 12:58:08;;;;;;;2.13;0.73;;;;;;;23.69;63.21;99620.09;5054925;28;20159;-58
2023/09/18 13:00:35;;;;;;;1.92;0.90;;;;;;;24.21;59.91;99614.25;5035517;28;20046;-58
2023/09/18 13:03:04;;;;;;;1.37;0.70;;;;;;;24.70;59.93;99612.66;5053170;28;20536;-61
2023/09/18 13:05:32;;;;;;;1.70;0.80;;;;;;;25.49;56.05;99608.81;5054630;28;20283;-57
2023/09/18 13:08:02;;;;;;;2.50;0.50;;;;;;;26.17;53.29;99610.59;5054804;28;20036;-58
2023/09/18 13:10:28;;;;;;;0.90;0.60;;;;;;;26.33;52.41;99608.47;5031441;28;20071;-59
2023/09/18 13:12:55;;;;;;;1.63;1.27;;;;;;;26.20;52.24;99608.06;5034785;28;20091;-58
2023/09/18 13:15:31;;;;;;;1.75;0.82;;;;;;;26.19;52.49;99590.06;5035071;28;20155;-60
2023/09/18 13:17:59;;;;;;;1.33;0.60;;;;;;;26.03;52.23;99599.56;5034994;28;20562;-60
2023/09/18 13:20:28;;;;;;;2.05;0.80;;;;;;;25.65;52.84;99601.31;5034934;28;20053;-58
2023/09/18 13:22:56;;;;;;;2.22;0.85;;;;;;;25.53;53.40;99593.50;5034657;28;20129;-58
2023/09/18 13:25:28;;;;;;;1.92;0.50;;;;;;;25.56;53.27;99589.38;5034643;28;20076;-60
2023/09/18 13:27:54;;;;;;;3.03;0.63;;;;;;;25.67;54.00;99580.81;5034804;28;20026;-60
2023/09/18 13:30:21;;;;;;;1.17;0.80;;;;;;;25.48;55.60;99590.84;5034876;28;20034;-62
2023/09/18 13:32:48;;;;;;;3.63;0.90;;;;;;;25.12;56.31;99582.19;5034516;28;20033;-60
2023/09/18 13:35:17;;;;;;;1.70;0.70;;;;;;;25.06;56.93;99584.13;5034659;28;20052;-57
2023/09/18 13:37:43;;;;;;;1.75;0.75;;;;;;;25.00;56.54;99585.22;5034624;28;20112;-60
2023/09/18 13:40:10;;;;;;;3.33;0.80;;;;;;;25.25;56.70;99586.97;5034671;28;20560;-60
2023/09/18 13:42:36;;;;;;;2.47;0.67;;;;;;;26.03;54.05;99585.94;5047350;28;20492;-60
2023/09/18 13:45:09;;;;;;;1.80;0.80;;;;;;;26.67;52.59;99579.09;5054003;28;20111;-58
2023/09/18 13:47:35;;;;;;;1.35;0.98;;;;;;;27.51;50.18;99586.50;5050971;28;20127;-57
2023/09/18 13:50:02;;;;;;;1.70;0.90;;;;;;;27.91;47.11;99589.59;5053286;28;20033;-57
2023/09/18 13:52:31;;;;;;;;;;;;;;;27.62;47.29;99590.66;5053920;28;20534;-60
2023/09/18 13:54:57;;;;;;;1.27;0.77;;;;;;;27.01;48.57;99599.91;5051299;28;20054;-59
2023/09/18 13:57:23;;;;;;;2.45;0.80;;;;;;;26.74;50.09;99606.84;5052754;28;20491;-58
2023/09/18 13:59:50;;;;;;;2.53;0.90;;;;;;;26.60;50.25;99586.81;5053707;28;20587;-59
2023/09/18 14:02:16;;;;;;;1.90;1.10;;;;;;;26.57;50.89;99583.88;5053314;28;20037;-58
2023/09/18 14:04:42;;;;;;;2.67;0.90;;;;;;;26.22;52.65;99578.59;5053642;28;20492;-59
2023/09/18 14:07:09;;;;;;;1.50;0.80;;;;;;;26.28;51.91;99573.88;5053242;28;20037;-57
2023/09/18 14:09:34;;;;;;;2.07;0.87;;;;;;;26.05;51.92;99572.78;5053610;28;20120;-61
2023/09/18 14:12:01;;;;;;;1.40;0.70;;;;;;;25.93;52.42;99569.66;5053540;28;20488;-57
2023/09/18 14:14:26;;;;;;;3.70;0.87;;;;;;;25.73;54.01;99562.53;5053259;28;20029;-59
2023/09/18 14:16:52;;;;;;;1.55;0.68;;;;;;;25.47;54.49;99564.69;5053496;28;20048;-58
2023/09/18 14:19:17;;;;;;;2.80;1.00;;;;;;;25.45;54.00;99553.25;5054106;28;20107;-60
2023/09/18 14:21:43;;;;;;;2.60;1.10;;;;;;;25.37;54.29;99551.97;5053820;28;20036;-54
2023/09/18 14:24:09;;;;;;;1.27;0.60;;;;;;;25.39;54.03;99557.13;5053499;28;20029;-58
2023/09/18 14:26:40;;;;;;;1.63;0.80;;;;;;;25.34;55.04;99557.97;5053644;28;20067;-58
2023/09/18 14:29:10;;;;;;;2.50;0.77;;;;;;;25.31;56.73;99546.84;5053590;28;20029;-60
2023/09/18 14:31:36;;;;;;;1.55;0.50;;;;;;;25.23;56.45;99545.53;5053397;28;20033;-60
2023/09/18 14:34:02;;;;;;;1.33;0.70;;;;;;;25.25;55.67;99539.84;5053151;28;20047;-60
2023/09/18 14:36:27;;;;;;;0.93;0.80;;;;;;;25.19;55.54;99544.50;5053299;28;20045;-58
2023/09/18 14:38:53;;;;;;;2.47;0.88;;;;;;;25.19;55.61;99538.25;5053405;28;20064;-57
2023/09/18 14:41:21;;;;;;;2.25;1.00;;;;;;;25.08;55.76;99538.31;5053498;28;20037;-59
2023/09/18 14:43:46;;;;;;;2.88;1.10;;;;;;;25.03;56.52;99534.81;5052956;28;20028;-59
2023/09/18 14:46:12;;;;;;;3.60;0.80;;;;;;;24.96;56.45;99529.69;5051924;28;20427;-60
2023/09/18 14:48:37;;;;;;;2.65;0.90;;;;;;;25.00;56.54;99528.03;5053139;28;20037;-56
2023/09/18 14:51:03;;;;;;;2.47;0.82;;;;;;;24.94;56.67;99515.53;5053243;28;20044;-59
2023/09/18 14:53:29;;;;;;;1.48;0.90;;;;;;;24.89;57.19;99512.84;5052786;28;20029;-58
2023/09/18 14:55:55;;;;;;;5.15;1.10;;;;;;;24.83;57.14;99503.09;5052968;28;20488;-59
2023/09/18 14:58:24;;;;;;;1.30;0.60;;;;;;;24.77;56.85;99496.06;5051725;28;20044;-57
2023/09/18 15:00:50;;;;;;;1.92;0.90;;;;;;;24.80;56.82;99487.34;5052125;28;20374;-58
2023/09/18 15:03:16;;;;;;;1.05;0.70;;;;;;;24.76;56.29;99489.00;5052638;28;20448;-58
2023/09/18 15:05:41;;;;;;;2.05;0.88;;;;;;;24.84;56.53;99493.81;5052801;28;20365;-58
2023/09/18 15:08:07;;;;;;;1.73;0.68;;;;;;;24.83;56.85;99487.56;5052806;28;20124;-59
2023/09/18 15:10:32;;;;;;;1.77;0.95;;;;;;;24.84;56.89;99486.50;5052780;28;20119;-59
2023/09/18 15:12:58;;;;;;;1.05;0.60;;;;;;;24.72;56.19;99475.16;5052445;28;20098;-58
2023/09/18 15:15:24;;;;;;;2.03;0.73;;;;;;;24.71;56.50;99487.13;5052653;28;20036;-57
2023/09/18 15:17:52;;;;;;;2.53;0.85;;;;;;;24.66;55.76;99475.47;5052588;28;20048;-57
2023/09/18 15:20:18;;;;;;;1.70;0.68;;;;;;;24.62;56.76;99470.59;5052736;28;20511;-57
2023/09/18 15:22:44;;;;;;;5.32;1.00;;;;;;;24.62;57.00;99470.59;5052342;28;20055;-58
2023/09/18 15:25:10;;;;;;;0.95;0.68;;;;;;;24.64;57.61;99467.56;5052606;28;20033;-55
2023/09/18 15:27:36;;;;;;;2.10;0.73;;;;;;;24.62;57.72;99467.06;5052463;28;20119;-56
2023/09/18 15:30:05;;;;;;;1.08;0.57;;;;;;;24.59;58.32;99460.28;5052453;28;20045;-57
2023/09/18 15:32:46;;;;;;;2.35;0.90;;;;;;;24.63;58.59;99469.50;5052093;28;20542;-58
2023/09/18 15:35:11;;;;;;;2.60;0.98;;;;;;;24.63;57.71;99455.88;5052364;28;20112;-57
2023/09/18 15:37:37;;;;;;;2.85;0.98;;;;;;;24.62;57.65;99453.44;5052224;28;20128;-57
2023/09/18 15:40:04;;;;;;;0.77;0.60;;;;;;;24.56;57.05;99449.94;5052240;28;20079;-56
2023/09/18 15:42:29;;;;;;;;;;;;;;;24.49;57.47;99454.09;5052334;28;20523;-58
2023/09/18 15:44:55;;;;;;;1.67;0.77;;;;;;;24.47;57.51;99457.09;5052196;28;19956;-60
2023/09/18 15:47:20;;;;;;;1.83;0.80;;;;;;;24.50;58.12;99459.25;5052060;28;20384;-58